Colazo, Argentina
Current Conditions -  °F | °C
As of 9:00 AM on Friday 24 Oct 2014 (Local Time) from SACO Reporting Station
Clear Clear  
Wind Chill: 81°   Ceiling: Unl
Heat Index: 81°   Visibility: 6mi
Dew Point: 61°   Wind: 7mph
Humidity: 51%   Direction: 20°NNE
Pressure: 30.03"   Gusts: NA
Location:  31.88°S, 63.42°W
Report Text: SACO 241200Z 02006KT CAVOK 27/16 Q1017
Loading
Personal Weather Stations






























Interactive Weather Map
Tropical Storm Tracking
New forecast layout! Learn more

10-Day Weather Forecast

Advertisements
Track Severe Weather on mobile